^^

..:: Storico WU ::..




Lo storico viene creato da WUnderground con i dati che la stazione Meteomincio invia al loro server. L' aggiornamento viene fatto ogni 5 minuti circa, tuttavia possono esserci intervalli pi¨ ampi a causa di errori, interruzioni di servizio o problemi nell' invio tramite FTP.


Storico stazione MeteoMincio
Giorno Sommario per Dicembre 06, 2022 Unità:  Inglese    Metrico   Entrambi
Giorno Settimana Mese Anno
  Max: Min: Media:
Temperatura: 43.5 °F 37 °F 39.7 °F
Dew Point: 42.4 °F 36.1 °F 38.8 °F
Umidità: 97% 95% 96%
Velocità vento: 7.9mph 0mph 3.3mph
Raffica: 13mph - -
Direzione- - SW
Pressione: 30.1 in 30 in -
Precipitazioni: 0.01 in    
 
 
Tabulato Dati per Dicembre 06, 2022
Ora Temperatura Dew Point Pressione Direzione Velocità vento Raffica Umidità Intensità pioggia (oraria) Info solare Situazione
00:04 43.5 °F 42.4 °F 30 in SSW 3.9 mph 7 mph 96% 0 in 0 W/m2
00:09 43.3 °F 42.3 °F 30 in SW 4.3 mph 7 mph 96% 0 in 0 W/m2
00:14 43.3 °F 42.3 °F 30 in WSW 4.6 mph 8.1 mph 96% 0 in 0 W/m2
00:19 43.2 °F 42.1 °F 30 in WSW 3.8 mph 8 mph 96% 0 in 0 W/m2
00:24 43.2 °F 42.1 °F 30 in WSW 3.7 mph 6 mph 96% 0 in 0 W/m2
00:29 42.8 °F 41.7 °F 30 in West 3.5 mph 6 mph 96% 0 in 0 W/m2
00:34 42.8 °F 41.7 °F 30 in WSW 3.6 mph 5 mph 96% 0 in 0 W/m2
00:39 42.4 °F 41.4 °F 30 in West 3.5 mph 5 mph 96% 0 in 0 W/m2
00:44 42.3 °F 41.2 °F 30 in West 3.4 mph 5 mph 96% 0 in 0 W/m2
00:49 42.1 °F 41 °F 30 in West 3.2 mph 5 mph 96% 0 in 0 W/m2
00:54 42.1 °F 41 °F 30 in WNW 3 mph 5 mph 96% 0 in 0 W/m2
00:59 42.1 °F 41 °F 30 in WNW 3.9 mph 6 mph 96% 0 in 0 W/m2
01:04 42.1 °F 41 °F 30 in WNW 3.5 mph 6 mph 96% 0 in 0 W/m2
01:09 42.1 °F 41 °F 30 in WNW 3.9 mph 5 mph 96% 0 in 0 W/m2
01:14 42.1 °F 41 °F 30 in WNW 3.5 mph 5 mph 96% 0 in 0 W/m2
01:19 42.1 °F 41 °F 30 in WNW 3.7 mph 6 mph 96% 0 in 0 W/m2
01:24 42.1 °F 41 °F 30 in WNW 3.9 mph 5.8 mph 96% 0 in 0 W/m2
01:29 42.1 °F 41 °F 30 in WNW 3.5 mph 6 mph 96% 0 in 0 W/m2
01:34 42.3 °F 41.2 °F 30 in WNW 3.7 mph 6 mph 96% 0 in 0 W/m2
01:39 42.3 °F 41.2 °F 30 in WNW 5.3 mph 11 mph 96% 0 in 0 W/m2
01:44 42.6 °F 41.4 °F 30 in NW 6.7 mph 12 mph 96% 0 in 0 W/m2
01:49 42.8 °F 41.7 °F 30 in WNW 6.3 mph 12 mph 96% 0 in 0 W/m2
01:54 42.8 °F 41.7 °F 30 in WNW 6 mph 10 mph 96% 0 in 0 W/m2
01:59 42.8 °F 41.7 °F 30 in WNW 7 mph 10.4 mph 96% 0 in 0 W/m2
02:04 42.6 °F 41.5 °F 30 in West 6.6 mph 10.4 mph 96% 0 in 0 W/m2
02:09 42.6 °F 41.5 °F 30 in WNW 6.5 mph 11.5 mph 96% 0 in 0 W/m2
02:14 42.6 °F 41.5 °F 30 in WNW 7.5 mph 12 mph 96% 0 in 0 W/m2
02:19 42.6 °F 41.5 °F 30 in West 6.3 mph 12 mph 96% 0 in 0 W/m2
02:24 42.6 °F 41.5 °F 30 in West 5.7 mph 9.2 mph 96% 0 in 0 W/m2
02:29 42.6 °F 41.4 °F 30 in West 6.6 mph 11.5 mph 96% 0 in 0 W/m2
02:34 42.4 °F 41.4 °F 30 in West 6.2 mph 12 mph 96% 0 in 0 W/m2
02:39 42.3 °F 41.2 °F 30 in West 6.2 mph 10.4 mph 96% 0 in 0 W/m2
02:44 42.3 °F 41.2 °F 30 in West 5.2 mph 10 mph 96% 0 in 0 W/m2
02:49 42.1 °F 41 °F 30 in West 5 mph 8.1 mph 96% 0 in 0 W/m2
02:54 42.1 °F 41 °F 30 in West 4.6 mph 8 mph 96% 0 in 0 W/m2
02:59 42.1 °F 41 °F 30 in WNW 4.7 mph 8 mph 96% 0 in 0 W/m2
03:04 42.3 °F 41.2 °F 30 in WNW 5.5 mph 9.2 mph 96% 0 in 0 W/m2
03:09 42.3 °F 41 °F 30 in WNW 5 mph 9 mph 96% 0 in 0 W/m2
03:14 42.1 °F 41 °F 30 in West 4.3 mph 8 mph 96% 0 in 0 W/m2
03:19 41.9 °F 40.8 °F 30 in WNW 4.5 mph 7 mph 96% 0 in 0 W/m2
03:24 41.9 °F 40.8 °F 30 in WNW 4.8 mph 7 mph 96% 0 in 0 W/m2
03:29 41.9 °F 40.8 °F 30 in WNW 4.3 mph 7 mph 96% 0 in 0 W/m2
03:34 41.9 °F 40.8 °F 30 in WNW 5.3 mph 8.1 mph 96% 0 in 0 W/m2
03:39 41.9 °F 40.8 °F 30 in WNW 5.4 mph 8.1 mph 96% 0 in 0 W/m2
03:44 41.7 °F 40.6 °F 30 in NW 4.5 mph 8.1 mph 96% 0 in 0 W/m2
03:49 41.5 °F 40.5 °F 30 in WNW 4.7 mph 8.1 mph 96% 0 in 0 W/m2
03:54 41.5 °F 40.3 °F 30 in WNW 5.1 mph 8.1 mph 96% 0 in 0 W/m2
03:59 41.4 °F 40.3 °F 30 in WNW 4.5 mph 8 mph 96% 0 in 0 W/m2
04:04 41.2 °F 40.1 °F 30 in WNW 5 mph 7 mph 96% 0 in 0 W/m2
04:09 41.4 °F 40.1 °F 30 in WNW 5.3 mph 7 mph 96% 0 in 0 W/m2
04:14 41.4 °F 40.3 °F 30 in WNW 4.7 mph 7 mph 96% 0 in 0 W/m2
04:19 41.4 °F 40.3 °F 30 in WNW 3.9 mph 7 mph 96% 0 in 0 W/m2
04:24 41.2 °F 40.1 °F 30 in West 2.9 mph 5 mph 96% 0 in 0 W/m2
04:29 41.2 °F 40.1 °F 30 in WNW 2.5 mph 5 mph 96% 0 in 0 W/m2
04:34 40.8 °F 39.7 °F 30 in West 2.5 mph 4 mph 96% 0 in 0 W/m2
04:39 40.6 °F 39.6 °F 30 in WSW 3.4 mph 8 mph 96% 0 in 0 W/m2
04:44 40.3 °F 39.2 °F 30 in WSW 4.9 mph 8.1 mph 96% 0 in 0 W/m2
04:49 39.9 °F 38.8 °F 30 in WSW 3.5 mph 8 mph 96% 0 in 0 W/m2
04:54 39.6 °F 38.5 °F 30 in WSW 3.5 mph 6 mph 96% 0 in 0 W/m2
04:59 39.4 °F 38.3 °F 30 in WSW 4.7 mph 8 mph 96% 0 in 0 W/m2
05:04 39.2 °F 38.1 °F 30 in West 5.1 mph 8.1 mph 96% 0 in 0 W/m2
05:09 39.2 °F 38.1 °F 30 in West 4.8 mph 7 mph 96% 0 in 0 W/m2
05:14 39.2 °F 38.1 °F 30 in West 4.8 mph 7 mph 96% 0 in 0 W/m2
05:19 39.2 °F 38.1 °F 30 in West 3.8 mph 7 mph 96% 0 in 0 W/m2
05:24 39.2 °F 38.1 °F 30 in West 5.3 mph 10.4 mph 96% 0.01 in 0 W/m2
05:29 39.2 °F 38.1 °F 30 in West 5.2 mph 10 mph 96% 0.01 in 0 W/m2
05:34 39 °F 38.1 °F 30 in West 7.1 mph 10.4 mph 96% 0.01 in 0 W/m2
05:39 39 °F 37.9 °F 30 in West 5.8 mph 10.4 mph 96% 0.01 in 0 W/m2
05:44 38.8 °F 37.8 °F 30 in West 5.8 mph 8.1 mph 96% 0.01 in 0 W/m2
05:49 38.7 °F 37.8 °F 30 in WSW 4.5 mph 8 mph 96% 0.01 in 0 W/m2
05:54 38.5 °F 37.6 °F 30 in WSW 4.4 mph 8 mph 96% 0.01 in 0 W/m2
05:59 38.5 °F 37.4 °F 30 in West 4.9 mph 8.1 mph 96% 0.01 in 0 W/m2
06:04 38.3 °F 37.2 °F 30 in West 5 mph 8 mph 96% 0.01 in 0 W/m2
06:09 38.3 °F 37.2 °F 30 in West 4.3 mph 8.1 mph 96% 0.01 in 0 W/m2
06:14 38.3 °F 37.2 °F 30 in West 5.2 mph 11 mph 96% 0.01 in 0 W/m2
06:19 38.1 °F 37.2 °F 30 in West 7.2 mph 12 mph 96% 0.01 in 0 W/m2
06:24 38.1 °F 37 °F 30 in West 5.9 mph 12 mph 96% 0.01 in 0 W/m2
06:29 38.1 °F 37 °F 30 in West 5.5 mph 8.1 mph 96% 0.01 in 0 W/m2
06:34 38.1 °F 37 °F 30 in West 4.9 mph 8.1 mph 96% 0 in 0 W/m2
06:39 37.9 °F 37 °F 30 in West 6.5 mph 10.4 mph 96% 0 in 0 W/m2
06:44 37.9 °F 37 °F 30 in West 5.3 mph 10 mph 96% 0 in 0 W/m2
06:49 37.9 °F 36.9 °F 30 in WSW 6.8 mph 9.2 mph 96% 0 in 0 W/m2
06:54 37.8 °F 36.9 °F 30 in WSW 6.1 mph 10 mph 96% 0 in 0 W/m2
06:59 37.8 °F 36.7 °F 30 in West 7 mph 10.4 mph 96% 0 in 0 W/m2
07:04 37.8 °F 36.7 °F 30 in West 7.9 mph 11.5 mph 96% 0 in 0 W/m2
07:09 37.8 °F 36.7 °F 30 in West 6.1 mph 12 mph 96% 0 in 0 W/m2
07:14 37.8 °F 36.7 °F 30 in WSW 5.7 mph 9.2 mph 96% 0 in 0 W/m2
07:19 37.6 °F 36.7 °F 30 in West 7.3 mph 11.5 mph 96% 0 in 0 W/m2
07:24 37.6 °F 36.5 °F 30 in WSW 6.4 mph 12 mph 96% 0 in 0 W/m2
07:29 37.6 °F 36.5 °F 30 in WSW 6.8 mph 12 mph 96% 0 in 0 W/m2
07:34 37.6 °F 36.5 °F 30 in WSW 7.5 mph 12 mph 96% 0 in 0 W/m2
07:39 37.4 °F 36.5 °F 30 in WSW 7.2 mph 12 mph 96% 0 in 0 W/m2
07:44 37.4 °F 36.3 °F 30 in WSW 6.8 mph 13 mph 96% 0 in 0 W/m2
07:49 37.2 °F 36.3 °F 30 in WSW 6.2 mph 13 mph 96% 0 in 0 W/m2
07:54 37.2 °F 36.3 °F 30 in WSW 7.7 mph 12 mph 96% 0 in 5 W/m2
07:59 37.2 °F 36.3 °F 30 in WSW 6.6 mph 12 mph 96% 0 in 9 W/m2
08:04 37.2 °F 36.1 °F 30 in WSW 6.5 mph 10 mph 96% 0 in 11 W/m2
08:09 37 °F 36.1 °F 30 in West 6 mph 12 mph 96% 0 in 16 W/m2
08:14 37 °F 36.1 °F 30 in WSW 5.3 mph 12 mph 96% 0 in 18 W/m2
08:19 37 °F 36.1 °F 30 in WSW 5.7 mph 12 mph 96% 0 in 21 W/m2
08:24 37.2 °F 36.1 °F 30 in WSW 4.9 mph 12 mph 96% 0 in 25 W/m2
08:29 37.2 °F 36.1 °F 30 in WSW 6.3 mph 10.4 mph 96% 0 in 28 W/m2
08:34 37.2 °F 36.3 °F 30 in West 6.4 mph 10 mph 96.2% 0 in 35 W/m2
08:39 37.2 °F 36.3 °F 30 in WSW 4.3 mph 9 mph 96.5% 0 in 44 W/m2
08:44 37.4 °F 36.7 °F 30 in WSW 5.1 mph 8.1 mph 97% 0 in 47 W/m2
08:49 37.4 °F 36.5 °F 30 in WSW 6 mph 10.4 mph 96.2% 0 in 28 W/m2
08:54 37.4 °F 36.3 °F 30 in West 6.5 mph 10.4 mph 96% 0 in 39 W/m2
08:59 37.4 °F 36.5 °F 30 in West 4.8 mph 10 mph 96.5% 0 in 42 W/m2
09:04 37.4 °F 36.7 °F 30 in WSW 4.5 mph 9 mph 97% 0 in 54 W/m2
09:09 37.6 °F 36.9 °F 30 in WSW 4.6 mph 8.1 mph 97% 0 in 77 W/m2
09:14 37.8 °F 36.9 °F 30 in West 4.8 mph 8.1 mph 96.2% 0 in 74 W/m2
09:19 37.8 °F 36.7 °F 30 in West 4.8 mph 8 mph 96% 0 in 86 W/m2
09:24 37.9 °F 36.9 °F 30 in WNW 3.2 mph 7 mph 96.4% 0 in 81 W/m2
09:29 37.9 °F 37 °F 30 in West 4.7 mph 8.1 mph 96.5% 0 in 84 W/m2
09:34 37.9 °F 36.9 °F 30 in WNW 4.2 mph 8 mph 96.2% 0 in 84 W/m2
09:39 37.9 °F 36.9 °F 30 in WNW 4 mph 7 mph 96% 0 in 88 W/m2
09:44 37.9 °F 36.9 °F 30 in WNW 4.1 mph 7 mph 96% 0 in 88 W/m2
09:49 37.9 °F 37 °F 30 in WNW 3.9 mph 7 mph 96.4% 0 in 86 W/m2
09:54 37.9 °F 37.2 °F 30 in WNW 4.6 mph 7 mph 97% 0 in 90 W/m2
09:59 38.1 °F 37.2 °F 30 in West 5 mph 7 mph 97% 0 in 93 W/m2
10:04 38.1 °F 37.4 °F 30 in West 4.3 mph 7 mph 97% 0 in 88 W/m2
10:09 38.3 °F 37.4 °F 30 in WNW 4.9 mph 8 mph 97% 0 in 84 W/m2
10:14 38.5 °F 37.8 °F 30.1 in West 4.9 mph 8.1 mph 97% 0 in 109 W/m2
10:19 38.5 °F 37.8 °F 30.1 in WNW 5.4 mph 8.1 mph 97% 0 in 125 W/m2
10:24 38.7 °F 37.8 °F 30.1 in WNW 4.5 mph 8 mph 97% 0 in 76 W/m2
10:29 38.7 °F 37.9 °F 30.1 in West 4.1 mph 7 mph 97% 0 in 79 W/m2
10:34 38.8 °F 38.1 °F 30.1 in WNW 3.7 mph 7 mph 97% 0 in 65 W/m2
10:39 38.8 °F 37.9 °F 30.1 in NW 3.8 mph 7 mph 97% 0 in 74 W/m2
10:44 38.8 °F 38.1 °F 30.1 in NW 3.5 mph 7 mph 97% 0 in 72 W/m2
10:49 39.2 °F 38.3 °F 30.1 in NW 3.9 mph 7 mph 97% 0 in 81 W/m2
10:54 39.2 °F 38.3 °F 30.1 in WNW 4.2 mph 7 mph 97% 0 in 104 W/m2
10:59 39 °F 38.3 °F 30.1 in West 4.8 mph 7 mph 97% 0 in 98 W/m2
11:04 39.2 °F 38.3 °F 30.1 in WNW 4.5 mph 7 mph 97% 0 in 95 W/m2
11:09 39.2 °F 38.3 °F 30.1 in West 4.5 mph 7 mph 97% 0 in 116 W/m2
11:14 39 °F 38.3 °F 30 in WNW 4.5 mph 8.1 mph 97% 0 in 135 W/m2
11:19 39 °F 38.3 °F 30 in WNW 4.8 mph 8.1 mph 97% 0 in 123 W/m2
11:24 39.2 °F 38.5 °F 30 in NW 3.7 mph 8 mph 97% 0 in 116 W/m2
11:29 39.6 °F 38.7 °F 30 in WNW 3.9 mph 7 mph 97% 0 in 151 W/m2
11:34 39.4 °F 38.7 °F 30 in West 4.3 mph 8.1 mph 97% 0 in 151 W/m2
11:39 39.2 °F 38.5 °F 30 in NW 3.9 mph 8 mph 97% 0 in 105 W/m2
11:44 39.4 °F 38.5 °F 30 in NNW 4.3 mph 7 mph 97% 0 in 88 W/m2
11:49 39.6 °F 38.7 °F 30 in NNW 3.5 mph 7 mph 97% 0 in 95 W/m2
11:54 39.6 °F 38.7 °F 30 in NNW 3 mph 7 mph 97% 0 in 97 W/m2
11:59 39.4 °F 38.7 °F 30 in NW 2.8 mph 5 mph 97% 0 in 98 W/m2
12:04 39.4 °F 38.7 °F 30 in West 2 mph 5 mph 97% 0 in 86 W/m2
12:09 39.4 °F 38.7 °F 30 in NW 2.5 mph 6 mph 97% 0 in 104 W/m2
12:14 39.7 °F 38.8 °F 30 in NNW 2.4 mph 6 mph 97% 0 in 91 W/m2
12:19 39.9 °F 39 °F 30 in NW 2.1 mph 5 mph 97% 0 in 98 W/m2
12:24 39.7 °F 38.8 °F 30 in WNW 2.6 mph 9 mph 97% 0 in 114 W/m2
12:29 39.7 °F 39 °F 30 in NW 3.9 mph 9.2 mph 97% 0 in 139 W/m2
12:34 39.9 °F 39.2 °F 30 in NNW 3.4 mph 9 mph 97% 0 in 130 W/m2
12:39 40.3 °F 39.4 °F 30 in NNW 3.7 mph 7 mph 97% 0 in 120 W/m2
12:44 40.1 °F 39.4 °F 30 in NW 3.7 mph 6.9 mph 97% 0 in 135 W/m2
12:49 40.6 °F 39.7 °F 30 in NNW 2.5 mph 7 mph 97% 0 in 135 W/m2
12:54 40.6 °F 39.7 °F 30 in NNW 0.7 mph 4 mph 97% 0 in 98 W/m2
12:59 40.8 °F 40.1 °F 30 in North 1.7 mph 4 mph 97% 0 in 123 W/m2
13:04 41 °F 40.1 °F 30 in North 3 mph 5 mph 97% 0 in 139 W/m2
13:09 41 °F 40.3 °F 30 in North 3.2 mph 5 mph 97% 0 in 109 W/m2
13:14 41 °F 39.9 °F 30 in North 2.6 mph 5 mph 96.6% 0 in 107 W/m2
13:19 40.8 °F 39.9 °F 30 in NNE 3.3 mph 7 mph 96.5% 0 in 137 W/m2
13:24 41.2 °F 40.1 °F 30 in NNW 3.2 mph 7 mph 96.5% 0 in 176 W/m2
13:29 41 °F 39.9 °F 30 in North 3.2 mph 6 mph 96% 0 in 148 W/m2
13:34 40.8 °F 39.7 °F 30 in NNE 2.2 mph 6 mph 96% 0 in 127 W/m2
13:39 40.8 °F 39.7 °F 30 in NE 2.4 mph 5 mph 96% 0 in 118 W/m2
13:44 40.8 °F 39.7 °F 30 in NNE 2.7 mph 4 mph 96% 0 in 114 W/m2
13:49 40.8 °F 39.6 °F 30 in NNE 2.7 mph 6 mph 96% 0 in 91 W/m2
13:54 40.5 °F 39.4 °F 30 in NE 3.8 mph 7 mph 96% 0 in 88 W/m2
13:59 40.5 °F 39.4 °F 30 in NE 3.9 mph 6 mph 96% 0 in 93 W/m2
14:04 40.5 °F 39.4 °F 30 in ENE 3.8 mph 6 mph 96% 0 in 97 W/m2
14:09 40.5 °F 39.4 °F 30 in NE 2.5 mph 6 mph 96% 0 in 86 W/m2
14:14 40.3 °F 39.4 °F 30 in North 2.3 mph 6 mph 96% 0 in 93 W/m2
14:19 40.6 °F 39.6 °F 30 in NE 1.7 mph 4 mph 96% 0 in 90 W/m2
14:24 40.5 °F 39.4 °F 30 in East 1.4 mph 5 mph 96% 0 in 88 W/m2
14:29 40.3 °F 39.4 °F 30 in East 0.4 mph 5 mph 96% 0 in 81 W/m2
14:34 40.6 °F 39.6 °F 30 in ENE 2.3 mph 5 mph 96% 0 in 69 W/m2
14:39 41 °F 39.7 °F 30 in NE 1.9 mph 5 mph 96% 0 in 70 W/m2
14:44 41 °F 39.9 °F 30 in NNE 0.8 mph 4 mph 96% 0 in 76 W/m2
14:49 41 °F 39.9 °F 30 in North 1.6 mph 3.5 mph 96% 0 in 72 W/m2
14:54 41.2 °F 40.1 °F 30 in North 0.9 mph 3.5 mph 96% 0 in 67 W/m2
14:59 41.2 °F 40.1 °F 30 in ENE 1.6 mph 5 mph 96% 0 in 53 W/m2
15:04 40.8 °F 39.7 °F 30 in East 3.5 mph 5 mph 96% 0 in 58 W/m2
15:09 40.6 °F 39.6 °F 30 in East 2.9 mph 5 mph 96% 0 in 58 W/m2
15:14 40.6 °F 39.6 °F 30 in ESE 1.9 mph 5 mph 96% 0 in 63 W/m2
15:19 40.6 °F 39.6 °F 30 in ESE 2.2 mph 5 mph 96% 0 in 76 W/m2
15:24 40.6 °F 39.6 °F 30 in ESE 1.4 mph 3.5 mph 96% 0 in 79 W/m2
15:29 40.8 °F 39.7 °F 30 in NE 1.3 mph 3 mph 96% 0 in 81 W/m2
15:34 41 °F 39.9 °F 30 in NNE 2 mph 4 mph 96% 0 in 74 W/m2
15:39 41 °F 39.9 °F 30 in NE 1.7 mph 4 mph 96% 0 in 47 W/m2
15:44 40.8 °F 39.7 °F 30 in ENE 0.9 mph 3.5 mph 96% 0 in 30 W/m2
15:49 40.8 °F 39.7 °F 30 in Calm     96% 0 in 25 W/m2
15:54 40.8 °F 39.7 °F 30 in NE 0.7 mph 3 mph 96% 0 in 25 W/m2
15:59 40.8 °F 39.7 °F 30 in NE 1.4 mph 3.5 mph 96% 0 in 21 W/m2
16:04 40.8 °F 39.6 °F 30 in NE 1.5 mph 3.5 mph 96% 0 in 12 W/m2
16:09 40.8 °F 39.6 °F 30 in North 1.6 mph 3.5 mph 96% 0 in 12 W/m2
16:14 40.8 °F 39.7 °F 30 in North 0.3 mph 3 mph 96% 0 in 11 W/m2
16:19 40.6 °F 39.6 °F 30 in North 0.9 mph 3.5 mph 96% 0 in 9 W/m2
16:24 40.6 °F 39.6 °F 30 in NNE 1.3 mph 3 mph 96% 0 in 7 W/m2
16:29 40.6 °F 39.6 °F 30 in NNE 2 mph 3.5 mph 96% 0 in 0 W/m2
16:34 40.6 °F 39.6 °F 30 in North 1.3 mph 3.5 mph 96% 0 in 0 W/m2
16:39 40.6 °F 39.6 °F 30 in NNE 0.9 mph 3 mph 96% 0 in 0 W/m2
16:44 40.5 °F 39.4 °F 30 in NE 0.5 mph 3 mph 96% 0 in 0 W/m2
16:49 40.5 °F 39.4 °F 30 in NNE 1.9 mph 4 mph 96% 0 in 0 W/m2
16:54 40.5 °F 39.4 °F 30 in NNE 1.5 mph 4 mph 95.8% 0 in 0 W/m2
16:59 40.3 °F 39.2 °F 30 in North 1.1 mph 3.5 mph 95.4% 0 in 0 W/m2
17:04 40.3 °F 39 °F 30 in NE 0.7 mph 3 mph 95% 0 in 0 W/m2
17:09 40.1 °F 38.8 °F 30 in NE 0.5 mph 2.3 mph 95% 0 in 0 W/m2
17:14 40.1 °F 39 °F 30 in NE 0.4 mph 2 mph 95.6% 0 in 0 W/m2
17:19 40.1 °F 39 °F 30 in NE 1.1 mph 2.3 mph 96% 0 in 0 W/m2
17:24 40.1 °F 39 °F 30 in East 1.1 mph 2.3 mph 96% 0 in 0 W/m2
17:29 39.9 °F 39 °F 30 in East 0.5 mph 2.3 mph 96% 0 in 0 W/m2
17:34 39.9 °F 39 °F 30 in ENE 0.9 mph 2.3 mph 96% 0 in 0 W/m2
17:39 40.1 °F 39 °F 30 in ENE 1.6 mph 4 mph 96% 0 in 0 W/m2
17:44 39.9 °F 39 °F 30 in NE 2.5 mph 4 mph 96% 0 in 0 W/m2
17:49 39.9 °F 39 °F 30 in NNW 1.7 mph 4 mph 96% 0 in 0 W/m2
17:54 39.9 °F 38.8 °F 30 in NE 1 mph 3 mph 96% 0 in 0 W/m2
17:59 39.7 °F 38.8 °F 30 in East 1.6 mph 4 mph 96% 0 in 0 W/m2
18:04 39.7 °F 38.7 °F 30 in NNE 2.9 mph 4 mph 96% 0 in 0 W/m2
18:09 39.7 °F 38.7 °F 30 in North 1.9 mph 4 mph 96% 0 in 0 W/m2
18:14 39.7 °F 38.7 °F 30 in NE 1.6 mph 3.5 mph 96% 0 in 0 W/m2
18:19 39.6 °F 38.7 °F 30 in East 1.7 mph 3.5 mph 96% 0 in 0 W/m2
18:24 39.6 °F 38.7 °F 30 in NE 1.6 mph 3.5 mph 96% 0 in 0 W/m2
18:29 39.6 °F 38.5 °F 30 in NE 0.3 mph 3 mph 96% 0 in 0 W/m2
18:34 39.6 °F 38.7 °F 30 in East 0.2 mph 3 mph 96% 0 in 0 W/m2
18:39 39.6 °F 38.5 °F 30 in ESE 1.9 mph 3.5 mph 96% 0 in 0 W/m2
18:44 39.4 °F 38.5 °F 30 in East 2.1 mph 3.5 mph 96% 0 in 0 W/m2
18:49 39.4 °F 38.3 °F 30 in East 1.9 mph 3.5 mph 96% 0 in 0 W/m2
18:54 39.2 °F 38.3 °F 30 in East 1.4 mph 3 mph 96% 0 in 0 W/m2
18:59 39.2 °F 38.1 °F 30 in ENE 2.2 mph 4 mph 96% 0 in 0 W/m2
19:04 39.2 °F 38.1 °F 30 in NE 0.8 mph 4 mph 96% 0 in 0 W/m2
19:09 39.2 °F 38.1 °F 30 in NE 0.2 mph 3 mph 96% 0 in 0 W/m2
19:14 39.2 °F 38.1 °F 30 in NE 2 mph 4 mph 96% 0 in 0 W/m2
19:19 39.2 °F 38.1 °F 30 in NE 0.7 mph 4 mph 96% 0 in 0 W/m2
19:24 39.2 °F 38.1 °F 30 in East 0.9 mph 2.3 mph 96% 0 in 0 W/m2
19:29 39.2 °F 38.1 °F 30 in East 1 mph 2.3 mph 96% 0 in 0 W/m2
19:34 39 °F 38.1 °F 30 in East 0.9 mph 2.3 mph 96% 0 in 0 W/m2
19:39 39 °F 38.1 °F 30 in SE 0.7 mph 2.3 mph 96% 0 in 0 W/m2
19:44 39 °F 38.1 °F 30 in SSE 0.9 mph 2.3 mph 96% 0 in 0 W/m2
19:49 39 °F 38.1 °F 30 in SE 1.6 mph 3.5 mph 96% 0 in 0 W/m2
19:54 39 °F 37.9 °F 30 in SE 0.9 mph 3 mph 96% 0 in 0 W/m2
19:59 39 °F 37.9 °F 30 in Calm   2 mph 96% 0 in 0 W/m2
20:04 39 °F 37.9 °F 30 in Calm   1 mph 96% 0 in 0 W/m2
20:09 39 °F 37.9 °F 30 in SE 0.4 mph 1.2 mph 96% 0 in 0 W/m2
20:14 39 °F 37.9 °F 30 in South 1.4 mph 3 mph 96% 0 in 0 W/m2
20:19 39 °F 37.9 °F 30 in SW 2 mph 3.5 mph 96% 0 in 0 W/m2
20:24 39 °F 37.9 °F 30 in SW 1.9 mph 3.5 mph 96% 0 in 0 W/m2
20:29 39 °F 37.9 °F 30 in SW 0.7 mph 3.5 mph 96% 0 in 0 W/m2
20:34 38.8 °F 37.9 °F 30 in SW 0.1 mph 3 mph 96% 0 in 0 W/m2
20:39 38.8 °F 37.9 °F 30 in SW 0.1 mph 1.2 mph 96% 0 in 0 W/m2
20:44 38.8 °F 37.9 °F 30 in SW 0.3 mph 2.3 mph 96% 0 in 0 W/m2
20:49 38.8 °F 37.9 °F 30 in WNW 1.6 mph 3.5 mph 96% 0 in 0 W/m2
20:54 38.8 °F 37.9 °F 30 in WNW 0.4 mph 3.5 mph 96% 0 in 0 W/m2
20:59 38.8 °F 37.9 °F 30 in WNW 0.2 mph 3 mph 96% 0 in 0 W/m2
21:04 38.8 °F 37.9 °F 30 in WNW 0.7 mph 2.3 mph 96% 0 in 0 W/m2
21:09 38.8 °F 37.9 °F 30 in WNW 1.8 mph 3.5 mph 96% 0 in 0 W/m2
21:14 38.8 °F 37.9 °F 30 in WNW 2.3 mph 4 mph 96% 0 in 0 W/m2
21:19 38.8 °F 37.8 °F 30 in WNW 2.2 mph 4 mph 96% 0 in 0 W/m2
21:24 38.7 °F 37.6 °F 30 in WNW 1.9 mph 3.5 mph 96% 0 in 0 W/m2
21:29 38.7 °F 37.6 °F 30 in WNW 0.5 mph 3.5 mph 96% 0 in 0 W/m2
21:34 38.5 °F 37.6 °F 30 in SW 0.6 mph 3.5 mph 96% 0 in 0 W/m2
21:39 38.5 °F 37.4 °F 30 in West 1.4 mph 3.5 mph 96% 0 in 0 W/m2
21:44 38.3 °F 37.4 °F 30 in West 0.6 mph 3 mph 96% 0 in 0 W/m2
21:49 38.3 °F 37.4 °F 30 in SW 1.2 mph 3.5 mph 96% 0 in 0 W/m2
21:54 38.3 °F 37.4 °F 30 in WSW 1.7 mph 3.5 mph 96% 0 in 0 W/m2
21:59 38.3 °F 37.4 °F 30 in SW 2.4 mph 4 mph 96% 0 in 0 W/m2
22:04 38.3 °F 37.4 °F 30 in WSW 2.4 mph 4 mph 96% 0 in 0 W/m2
22:09 38.5 °F 37.4 °F 30 in SW 1.4 mph 4 mph 96% 0 in 0 W/m2
22:14 38.3 °F 37.4 °F 30 in SSW 2.6 mph 5 mph 96% 0 in 0 W/m2
22:19 38.5 °F 37.4 °F 30 in SSW 2.4 mph 5 mph 96% 0 in 0 W/m2
22:24 38.5 °F 37.4 °F 30 in SSW 2.3 mph 4 mph 96% 0 in 0 W/m2
22:29 38.5 °F 37.6 °F 30 in SSW 2.2 mph 4 mph 96% 0 in 0 W/m2
22:34 38.7 °F 37.6 °F 30 in SSW 2.8 mph 5 mph 96% 0 in 0 W/m2
22:39 38.7 °F 37.6 °F 30 in SSW 3.3 mph 5 mph 96% 0 in 0 W/m2
22:44 38.7 °F 37.6 °F 30 in SSW 4 mph 5 mph 96% 0 in 0 W/m2
22:49 38.7 °F 37.8 °F 30 in SW 3 mph 5 mph 96% 0 in 0 W/m2
22:54 38.7 °F 37.8 °F 30 in SW 1.6 mph 5 mph 96% 0 in 0 W/m2
22:59 38.7 °F 37.8 °F 30 in SW 1.1 mph 3.5 mph 96% 0 in 0 W/m2
23:04 38.7 °F 37.8 °F 30 in SW 1.6 mph 3.5 mph 96% 0 in 0 W/m2
23:09 38.7 °F 37.8 °F 30 in WSW 1.2 mph 3 mph 96% 0 in 0 W/m2
23:14 38.7 °F 37.8 °F 30 in WNW 1.1 mph 3.5 mph 96% 0 in 0 W/m2
23:19 38.8 °F 37.8 °F 30 in WNW 2 mph 4 mph 96% 0 in 0 W/m2
23:24 38.8 °F 37.9 °F 30 in WNW 2.1 mph 4 mph 96% 0 in 0 W/m2
23:29 38.8 °F 37.9 °F 30 in WNW 2.3 mph 4 mph 96% 0 in 0 W/m2
23:34 39 °F 37.9 °F 30 in WNW 0.9 mph 3.5 mph 96% 0 in 0 W/m2
23:39 39 °F 37.9 °F 30 in WNW 1.3 mph 4 mph 96% 0 in 0 W/m2
23:44 39 °F 37.9 °F 30 in West 2.5 mph 4 mph 96% 0 in 0 W/m2
23:49 39 °F 38.1 °F 30 in WSW 2.2 mph 4 mph 96% 0 in 0 W/m2
23:54 39 °F 38.1 °F 30 in WNW 2.1 mph 5 mph 96% 0 in 0 W/m2
23:59 39 °F 38.1 °F 30 in WNW 2 mph 5 mph 96% 0 in 0 W/m2
Stazione Meteorologica MeteoMincio Rivalta s/M (MN)
Con i complimenti di Weather Underground - 4 mb


METEO PILLOLE
La più disastrosa inondazione causata da cicloni
Bangladesh
Nel novembre 1970 un ciclone nel Golfo del Bangladesh uccise circa 300.000 persone.

Do NOT follow this link or you will be banned from the site!